createdAt,value
2022-08-05T00:00:07.759Z,100215.38
2022-08-05T00:03:06.172Z,100223.38
2022-08-05T00:06:04.908Z,100196.13
2022-08-05T00:09:03.659Z,100207.28
2022-08-05T00:11:56.107Z,100212.06
2022-08-05T00:14:45.878Z,100174.88
2022-08-05T00:17:38.146Z,100201.34
2022-08-05T00:20:29.082Z,100204.91
2022-08-05T00:23:16.742Z,100200.47
2022-08-05T00:26:03.149Z,100202.06
2022-08-05T00:28:49.969Z,100199.94
2022-08-05T00:31:54.494Z,100175.91
2022-08-05T00:35:04.582Z,100209.53
2022-08-05T00:37:54.159Z,100212.28
2022-08-05T00:40:53.160Z,100168.66
2022-08-05T00:43:49.593Z,100201.41
2022-08-05T00:46:43.575Z,100163.00
2022-08-05T00:49:32.518Z,100196.25
2022-08-05T00:52:28.445Z,100191.81
2022-08-05T00:55:16.166Z,100163.34
2022-08-05T00:58:06.534Z,100163.28
2022-08-05T01:03:57.596Z,100186.75
2022-08-05T01:06:48.482Z,100145.88
2022-08-05T01:09:35.304Z,100180.69
2022-08-05T01:12:29.804Z,100171.44
2022-08-05T01:15:35.691Z,100180.28
2022-08-05T01:18:27.478Z,100181.13
2022-08-05T01:21:44.160Z,100169.16
2022-08-05T01:25:15.035Z,100148.81
2022-08-05T01:28:27.124Z,100171.72
2022-08-05T01:31:32.463Z,100171.25
2022-08-05T01:34:39.918Z,100163.63
2022-08-05T01:37:49.099Z,100127.16
2022-08-05T01:40:35.350Z,100149.22
2022-08-05T01:43:24.300Z,100131.97
2022-08-05T01:46:16.430Z,100155.63
2022-08-05T01:49:23.352Z,100165.94
2022-08-05T01:52:17.456Z,100153.06
2022-08-05T01:55:11.195Z,100124.91
2022-08-05T01:58:13.648Z,100155.34
2022-08-05T02:01:04.123Z,100140.09
2022-08-05T02:03:58.043Z,100136.88
2022-08-05T02:06:46.494Z,100145.66
2022-08-05T02:09:33.697Z,100158.75
2022-08-05T02:12:33.950Z,100115.66
2022-08-05T02:15:26.424Z,100129.69
2022-08-05T02:18:34.930Z,100136.94
2022-08-05T02:21:46.711Z,100154.50
2022-08-05T02:24:40.161Z,100145.72
2022-08-05T02:27:29.855Z,100132.91
2022-08-05T02:30:54.310Z,100127.25
2022-08-05T02:33:49.069Z,100132.50
2022-08-05T02:36:46.043Z,100143.69
2022-08-05T02:39:41.304Z,100144.06
2022-08-05T02:42:31.917Z,100129.63
2022-08-05T02:45:52.751Z,100125.22
2022-08-05T02:48:36.649Z,100102.34
2022-08-05T02:51:28.463Z,100142.78
2022-08-05T02:54:37.143Z,100135.13
2022-08-05T02:58:11.119Z,100133.91
2022-08-05T03:00:37.239Z,100130.25
2022-08-05T03:03:33.855Z,100107.00
2022-08-05T03:06:55.039Z,100126.19
2022-08-05T03:09:38.181Z,100131.03
2022-08-05T03:12:34.878Z,100127.41
2022-08-05T03:15:24.807Z,100102.91
2022-08-05T03:18:12.468Z,100129.91
2022-08-05T03:21:11.178Z,100113.50
2022-08-05T03:23:59.903Z,100093.13
2022-08-05T03:26:50.947Z,100098.22
2022-08-05T03:29:45.635Z,100123.91
2022-08-05T03:32:49.563Z,100114.34
2022-08-05T03:35:41.834Z,100116.41
2022-08-05T03:38:33.320Z,100121.84
2022-08-05T03:41:33.301Z,100116.63
2022-08-05T03:44:31.666Z,100086.59
2022-08-05T03:47:20.313Z,100098.50
2022-08-05T03:50:08.591Z,100070.03
2022-08-05T03:56:00.779Z,100109.88
2022-08-05T03:56:35.003Z,100093.47
2022-08-05T03:59:47.010Z,100111.13
2022-08-05T04:02:52.044Z,100069.22
2022-08-05T04:05:44.693Z,100106.91
2022-08-05T04:08:36.521Z,100095.28
2022-08-05T04:11:22.975Z,100097.28
2022-08-05T04:14:09.850Z,100073.75
2022-08-05T04:17:04.081Z,100072.72
2022-08-05T04:19:54.434Z,100082.78
2022-08-05T04:22:40.584Z,100064.53
2022-08-05T04:25:57.740Z,100077.63
2022-08-05T04:28:39.042Z,100102.28
2022-08-05T04:31:39.451Z,100078.94
2022-08-05T04:34:32.792Z,100093.81
2022-08-05T04:38:01.168Z,100094.75
2022-08-05T04:40:32.907Z,100068.09
2022-08-05T04:43:22.036Z,100049.75
2022-08-05T04:46:27.805Z,100092.09
2022-08-05T04:49:17.159Z,100068.53
2022-08-05T04:52:13.176Z,100090.06
2022-08-05T04:54:59.902Z,100089.22
2022-08-05T04:58:06.995Z,100100.75
2022-08-05T05:01:01.197Z,100095.94
2022-08-05T05:03:56.182Z,100079.16
2022-08-05T05:06:51.927Z,100094.28
2022-08-05T05:09:44.439Z,100070.25
2022-08-05T05:12:34.057Z,100082.16
2022-08-05T05:15:57.268Z,100078.88
2022-08-05T05:18:34.943Z,100103.97
2022-08-05T05:21:22.289Z,100090.69
2022-08-05T05:24:57.927Z,100089.78
2022-08-05T05:28:06.355Z,100084.91
2022-08-05T05:31:21.021Z,100085.53
2022-08-05T05:34:13.355Z,100089.84
2022-08-05T05:37:15.177Z,100087.72
2022-08-05T05:43:12.401Z,100088.94
2022-08-05T05:46:00.393Z,100084.47
2022-08-05T05:48:50.921Z,100077.66
2022-08-05T05:51:50.030Z,100063.53
2022-08-05T05:54:49.875Z,100044.72
2022-08-05T05:57:52.936Z,100088.78
2022-08-05T06:00:41.877Z,100091.47
2022-08-05T06:04:01.022Z,100097.31
2022-08-05T06:06:49.472Z,100070.31
2022-08-05T06:10:00.107Z,100087.59
2022-08-05T06:12:52.147Z,100087.84
2022-08-05T06:16:28.742Z,100099.22
2022-08-05T06:19:11.384Z,100075.78
2022-08-05T06:22:33.493Z,100099.34
2022-08-05T06:25:59.408Z,100090.69
2022-08-05T06:28:32.922Z,100078.47
2022-08-05T06:31:33.950Z,100078.78
2022-08-05T06:34:32.018Z,100081.09
2022-08-05T06:37:39.384Z,100074.50
2022-08-05T06:40:47.907Z,100069.44
2022-08-05T06:43:57.834Z,100077.03
2022-08-05T06:46:45.233Z,100076.81
2022-08-05T06:50:01.648Z,100082.38
2022-08-05T06:53:03.801Z,100084.88
2022-08-05T06:56:25.724Z,100073.31
2022-08-05T06:59:18.961Z,100087.13
2022-08-05T07:02:16.262Z,100073.50
2022-08-05T07:05:19.125Z,100051.59
2022-08-05T07:08:11.014Z,100075.31
2022-08-05T07:11:02.867Z,100057.94
2022-08-05T07:14:20.372Z,100079.09
2022-08-05T07:18:09.381Z,100088.63
2022-08-05T07:20:33.071Z,100076.91
2022-08-05T07:23:26.092Z,100068.84
2022-08-05T07:26:22.463Z,100078.16
2022-08-05T07:29:15.103Z,100071.09
2022-08-05T07:32:07.905Z,100076.75
2022-08-05T07:34:59.561Z,100074.78
2022-08-05T07:38:12.290Z,100066.28
2022-08-05T07:42:08.167Z,100073.09
2022-08-05T07:44:52.032Z,100072.88
2022-08-05T07:47:42.066Z,100066.13
2022-08-05T07:50:34.416Z,100066.81
2022-08-05T07:53:37.025Z,100041.97
2022-08-05T07:57:00.413Z,100066.06
2022-08-05T07:59:44.372Z,100073.56
2022-08-05T08:03:14.689Z,100064.44
2022-08-05T08:05:49.306Z,100060.16
2022-08-05T08:08:41.636Z,100054.50
2022-08-05T08:11:47.586Z,100060.47
2022-08-05T08:14:40.779Z,100077.78
2022-08-05T08:17:33.157Z,100069.97
2022-08-05T08:21:00.495Z,100059.34
2022-08-05T08:24:02.357Z,100050.88
2022-08-05T08:26:46.966Z,100043.97
2022-08-05T08:30:05.680Z,100065.78
2022-08-05T08:32:44.298Z,100072.69
2022-08-05T08:35:40.908Z,100071.47
2022-08-05T08:38:35.839Z,100068.97
2022-08-05T08:41:51.899Z,100057.91
2022-08-05T08:45:25.307Z,100057.34
2022-08-05T08:48:06.916Z,100031.88
2022-08-05T08:51:22.519Z,100063.56
2022-08-05T08:54:06.457Z,100051.78
2022-08-05T08:57:11.206Z,100044.75
2022-08-05T09:00:04.662Z,100054.28
2022-08-05T09:02:56.932Z,100049.19
2022-08-05T09:06:11.088Z,100049.53
2022-08-05T09:09:02.153Z,100048.06
2022-08-05T09:11:52.552Z,100045.78
2022-08-05T09:17:49.583Z,100050.41
2022-08-05T09:20:43.106Z,100026.56
2022-08-05T09:23:37.313Z,100052.94
2022-08-05T09:26:32.411Z,100037.41
2022-08-05T09:29:31.033Z,100042.97
2022-08-05T09:32:40.268Z,100021.56
2022-08-05T09:35:28.274Z,100045.31
2022-08-05T09:38:29.515Z,100035.72
2022-08-05T09:41:17.627Z,100035.47
2022-08-05T09:44:08.947Z,99995.91
2022-08-05T09:47:21.981Z,100016.94
2022-08-05T09:50:10.763Z,100044.47
2022-08-05T09:52:58.955Z,100022.91
2022-08-05T09:56:13.433Z,100013.25
2022-08-05T09:59:07.036Z,100009.56
2022-08-05T10:01:58.040Z,100029.81
2022-08-05T10:04:50.592Z,100026.22
2022-08-05T10:08:36.831Z,100021.41
2022-08-05T10:11:35.077Z,100012.06
2022-08-05T10:14:32.611Z,100005.44
2022-08-05T10:17:37.220Z,100001.97
2022-08-05T10:20:27.456Z,99984.09
2022-08-05T10:23:33.980Z,100004.28
2022-08-05T10:26:32.453Z,99984.59
2022-08-05T10:29:23.953Z,99972.75
2022-08-05T10:32:54.070Z,100003.47
2022-08-05T10:35:48.555Z,100006.06
2022-08-05T10:38:49.509Z,99995.88
2022-08-05T10:42:02.950Z,99993.72
2022-08-05T10:44:54.360Z,100008.22
2022-08-05T10:47:47.143Z,99990.13
2022-08-05T10:51:21.649Z,99993.81
2022-08-05T10:54:28.642Z,99986.59
2022-08-05T10:57:35.303Z,99994.00
2022-08-05T11:00:34.333Z,99987.16
2022-08-05T11:03:30.166Z,99981.53
2022-08-05T11:06:21.275Z,99974.28
2022-08-05T11:09:32.211Z,99970.06
2022-08-05T11:12:42.986Z,99971.31
2022-08-05T11:16:00.430Z,99979.06
2022-08-05T11:20:11.183Z,99980.19
2022-08-05T11:22:56.935Z,99973.63
2022-08-05T11:26:09.334Z,99968.00
2022-08-05T11:29:12.331Z,99944.13
2022-08-05T11:32:25.467Z,99960.78
2022-08-05T11:36:07.422Z,99961.59
2022-08-05T11:40:02.926Z,99953.47
2022-08-05T11:42:52.876Z,99957.72
2022-08-05T11:46:23.396Z,99940.09
2022-08-05T11:48:59.694Z,99957.19
2022-08-05T11:51:51.638Z,99946.06
2022-08-05T11:54:55.061Z,99961.31
2022-08-05T11:58:36.807Z,99935.00
2022-08-05T12:01:30.621Z,99961.28
2022-08-05T12:04:40.306Z,99956.94
2022-08-05T12:08:07.526Z,99956.44
2022-08-05T12:10:49.977Z,99961.47
2022-08-05T12:14:20.197Z,99950.25
2022-08-05T12:18:03.353Z,99938.00
2022-08-05T12:20:44.237Z,99943.25
2022-08-05T12:23:34.784Z,99943.03
2022-08-05T12:26:50.766Z,99927.81
2022-08-05T12:29:41.140Z,99933.69
2022-08-05T12:32:31.769Z,99935.03
2022-08-05T12:35:21.879Z,99941.94
2022-08-05T12:38:10.269Z,99924.47
2022-08-05T12:41:09.686Z,99923.16
2022-08-05T12:44:14.385Z,99918.44
2022-08-05T12:47:17.234Z,99923.69
2022-08-05T12:50:17.736Z,99908.94
2022-08-05T12:53:23.505Z,99889.06
2022-08-05T12:56:34.857Z,99903.66
2022-08-05T12:59:46.668Z,99905.38
2022-08-05T13:02:44.650Z,99912.63
2022-08-05T13:05:45.592Z,99891.50
2022-08-05T13:08:39.474Z,99905.47
2022-08-05T13:11:59.754Z,99899.53
2022-08-05T13:14:47.383Z,99900.78
2022-08-05T13:17:59.276Z,99902.81
2022-08-05T13:20:52.472Z,99874.97
2022-08-05T13:23:50.545Z,99900.25
2022-08-05T13:26:43.358Z,99867.00
2022-08-05T13:30:32.366Z,99888.50
2022-08-05T13:32:50.593Z,99882.66
2022-08-05T13:35:47.317Z,99891.09
2022-08-05T13:38:42.646Z,99881.84
2022-08-05T13:41:37.604Z,99877.94
2022-08-05T13:44:26.658Z,99883.59
2022-08-05T13:47:35.039Z,99879.00
2022-08-05T13:50:28.468Z,99877.59
2022-08-05T13:53:22.743Z,99880.03
2022-08-05T13:56:18.052Z,99880.44
2022-08-05T13:59:20.505Z,99847.72
2022-08-05T14:02:26.668Z,99873.38
2022-08-05T14:05:48.427Z,99865.56
2022-08-05T14:08:32.635Z,99869.13
2022-08-05T14:11:20.724Z,99852.66
2022-08-05T14:14:12.986Z,99865.63
2022-08-05T14:17:16.894Z,99845.63
2022-08-05T14:20:35.185Z,99860.03
2022-08-05T14:23:25.718Z,99857.00
2022-08-05T14:26:38.592Z,99847.53
2022-08-05T14:29:36.102Z,99859.81
2022-08-05T14:32:27.675Z,99852.13
2022-08-05T14:35:20.721Z,99815.31
2022-08-05T14:38:33.126Z,99859.22
2022-08-05T14:41:23.723Z,99852.66
2022-08-05T14:44:20.489Z,99848.59
2022-08-05T14:47:58.546Z,99852.06
2022-08-05T14:50:33.196Z,99847.59
2022-08-05T14:53:44.293Z,99823.00
2022-08-05T14:56:34.975Z,99841.56
2022-08-05T14:59:38.291Z,99840.09
2022-08-05T15:02:27.400Z,99843.72
2022-08-05T15:05:15.484Z,99846.28
2022-08-05T15:08:11.367Z,99840.66
2022-08-05T15:11:15.630Z,99834.47
2022-08-05T15:14:20.143Z,99816.66
2022-08-05T15:17:46.722Z,99835.28
2022-08-05T15:20:32.562Z,99835.59
2022-08-05T15:23:21.216Z,99829.41
2022-08-05T15:26:09.729Z,99812.06
2022-08-05T15:29:03.888Z,99823.09
2022-08-05T15:32:03.285Z,99797.47
2022-08-05T15:34:53.199Z,99816.09
2022-08-05T15:38:33.027Z,99822.53
2022-08-05T15:41:03.432Z,99819.28
2022-08-05T15:43:55.432Z,99789.44
2022-08-05T15:46:42.419Z,99801.81
2022-08-05T15:49:48.008Z,99781.59
2022-08-05T15:52:53.149Z,99798.50
2022-08-05T15:56:02.205Z,99804.97
2022-08-05T15:58:58.518Z,99803.94
2022-08-05T16:01:57.695Z,99803.22
2022-08-05T16:04:55.152Z,99796.38
2022-08-05T16:07:46.559Z,99803.19
2022-08-05T16:10:35.666Z,99783.09
2022-08-05T16:13:24.167Z,99799.22
2022-08-05T16:16:25.447Z,99776.97
2022-08-05T16:19:19.197Z,99794.50
2022-08-05T16:22:18.017Z,99804.75
2022-08-05T16:25:22.574Z,99802.59
2022-08-05T16:28:24.226Z,99799.06
2022-08-05T16:31:16.321Z,99793.28
2022-08-05T16:34:04.789Z,99792.84
2022-08-05T16:36:58.164Z,99790.69
2022-08-05T16:40:04.729Z,99780.34
2022-08-05T16:42:54.150Z,99793.22
2022-08-05T16:46:03.644Z,99790.09
2022-08-05T16:48:46.791Z,99795.56
2022-08-05T16:51:50.910Z,99787.78
2022-08-05T16:54:42.202Z,99766.47
2022-08-05T16:57:59.886Z,99781.97
2022-08-05T17:00:50.570Z,99772.13
2022-08-05T17:03:46.198Z,99790.13
2022-08-05T17:06:41.888Z,99788.44
2022-08-05T17:09:29.991Z,99789.50
2022-08-05T17:12:18.234Z,99790.41
2022-08-05T17:15:15.597Z,99808.94
2022-08-05T17:18:07.994Z,99830.63
2022-08-05T17:21:02.068Z,99845.00
2022-08-05T17:24:05.827Z,99855.53
2022-08-05T17:27:04.074Z,99857.00
2022-08-05T17:29:53.050Z,99822.88
2022-08-05T17:32:47.411Z,99876.03
2022-08-05T17:39:03.886Z,99880.66
2022-08-05T17:42:17.690Z,99892.09
2022-08-05T17:45:17.829Z,99937.28
2022-08-05T17:48:08.183Z,99926.25
2022-08-05T17:50:54.513Z,99941.81
2022-08-05T17:53:43.790Z,99938.59
2022-08-05T17:56:37.995Z,99951.63
2022-08-05T17:59:30.617Z,99955.56
2022-08-05T18:02:21.879Z,99963.34
2022-08-05T18:05:10.596Z,99987.66
2022-08-05T18:08:04.338Z,99977.91
2022-08-05T18:10:51.878Z,99996.81
2022-08-05T18:13:43.985Z,99992.53
2022-08-05T18:16:35.084Z,99990.22
2022-08-05T18:19:35.579Z,99970.94
2022-08-05T18:22:45.975Z,99971.06
2022-08-05T18:25:35.153Z,99987.94
2022-08-05T18:28:48.129Z,99997.34
2022-08-05T18:31:35.549Z,99988.47
2022-08-05T18:34:45.865Z,100006.56
2022-08-05T18:37:32.845Z,99997.63
2022-08-05T18:41:51.061Z,100017.97
2022-08-05T18:43:38.028Z,100017.75
2022-08-05T18:46:31.546Z,100029.78
2022-08-05T18:49:57.271Z,100034.25
2022-08-05T18:52:51.410Z,100038.50
2022-08-05T18:55:40.493Z,100009.13
2022-08-05T18:58:30.359Z,100065.41
2022-08-05T19:01:33.445Z,100062.38
2022-08-05T19:04:34.372Z,100039.47
2022-08-05T19:07:46.003Z,100064.66
2022-08-05T19:10:33.756Z,100059.97
2022-08-05T19:13:23.972Z,100062.88
2022-08-05T19:16:25.310Z,100031.53
2022-08-05T19:19:20.962Z,100056.72
2022-08-05T19:22:06.807Z,99999.84
2022-08-05T19:25:00.660Z,100071.66
2022-08-05T19:27:48.482Z,100007.53
2022-08-05T19:30:36.119Z,100075.72
2022-08-05T19:33:34.047Z,100050.25
2022-08-05T19:36:22.297Z,100063.88
2022-08-05T19:39:12.465Z,100082.69
2022-08-05T19:42:09.312Z,100069.94
2022-08-05T19:44:59.395Z,100045.25
2022-08-05T19:47:51.485Z,100084.00
2022-08-05T19:50:42.505Z,100059.13
2022-08-05T19:54:04.022Z,100089.81
2022-08-05T19:56:39.466Z,100068.66
2022-08-05T19:59:55.177Z,100048.78
2022-08-05T20:02:44.327Z,100093.47
2022-08-05T20:05:49.971Z,100098.53
2022-08-05T20:08:39.120Z,100073.84
2022-08-05T20:11:24.853Z,100089.81
2022-08-05T20:14:12.443Z,100048.34
2022-08-05T20:17:03.538Z,100100.13
2022-08-05T20:19:56.930Z,100092.50
2022-08-05T20:22:44.229Z,100071.47
2022-08-05T20:25:33.833Z,100093.38
2022-08-05T20:28:27.038Z,100092.22
2022-08-05T20:31:16.374Z,100102.56
2022-08-05T20:34:03.277Z,100083.59
2022-08-05T20:36:51.434Z,100102.00
2022-08-05T20:39:37.667Z,100104.03
2022-08-05T20:42:48.586Z,100104.38
2022-08-05T20:45:47.750Z,100091.66
2022-08-05T20:48:43.504Z,100114.72
2022-08-05T20:51:29.684Z,100128.28
2022-08-05T20:54:19.139Z,100126.66
2022-08-05T20:57:05.184Z,100129.47
2022-08-05T21:00:21.065Z,100141.38
2022-08-05T21:03:06.197Z,100123.84
2022-08-05T21:05:54.486Z,100103.56
2022-08-05T21:08:44.088Z,100083.09
2022-08-05T21:12:07.086Z,100085.56
2022-08-05T21:14:36.352Z,100106.31
2022-08-05T21:17:22.212Z,100104.28
2022-08-05T21:20:09.883Z,100122.28
2022-08-05T21:22:56.327Z,100128.34
2022-08-05T21:25:44.794Z,100139.56
2022-08-05T21:28:32.061Z,100153.59
2022-08-05T21:31:19.342Z,100136.03
2022-08-05T21:34:05.500Z,100173.16
2022-08-05T21:36:53.234Z,100163.13
2022-08-05T21:39:43.310Z,100181.09
2022-08-05T21:42:44.019Z,100158.34
2022-08-05T21:45:56.511Z,100187.88
2022-08-05T21:48:42.591Z,100188.59
2022-08-05T21:52:22.028Z,100196.63
2022-08-05T21:54:34.626Z,100190.25
2022-08-05T21:57:36.101Z,100184.28
2022-08-05T22:00:22.623Z,100149.19
2022-08-05T22:03:14.525Z,100191.91
2022-08-05T22:06:01.892Z,100208.34
2022-08-05T22:08:52.841Z,100190.78
2022-08-05T22:11:39.280Z,100207.56
2022-08-05T22:14:35.583Z,100223.94
2022-08-05T22:17:24.340Z,100209.97
2022-08-05T22:20:15.308Z,100222.34
2022-08-05T22:23:25.466Z,100184.34
2022-08-05T22:26:50.561Z,100200.31
2022-08-05T22:29:39.013Z,100207.88
2022-08-05T22:32:30.757Z,100186.28
2022-08-05T22:35:18.460Z,100220.63
2022-08-05T22:38:06.905Z,100210.63
2022-08-05T22:40:56.168Z,100242.63
2022-08-05T22:43:42.453Z,100245.47
2022-08-05T22:46:31.098Z,100216.28
2022-08-05T22:50:17.611Z,100233.53
2022-08-05T22:52:32.609Z,100256.72
2022-08-05T22:55:22.371Z,100267.91
2022-08-05T22:58:11.778Z,100232.31
2022-08-05T23:01:00.699Z,100249.94
2022-08-05T23:03:58.691Z,100269.50
2022-08-05T23:06:45.550Z,100271.13
2022-08-05T23:09:57.437Z,100248.75
2022-08-05T23:12:43.939Z,100274.31
2022-08-05T23:15:35.187Z,100276.72
2022-08-05T23:18:22.905Z,100267.09
2022-08-05T23:21:10.243Z,100277.53
2022-08-05T23:23:56.357Z,100273.50
2022-08-05T23:26:42.728Z,100247.09
2022-08-05T23:29:34.578Z,100247.09
2022-08-05T23:32:23.483Z,100271.06
2022-08-05T23:35:09.539Z,100286.31
2022-08-05T23:37:55.572Z,100284.69
2022-08-05T23:40:42.542Z,100277.50
2022-08-05T23:44:05.028Z,100266.72
2022-08-05T23:46:45.577Z,100270.31
2022-08-05T23:49:35.928Z,100269.09
2022-08-05T23:52:32.604Z,100293.47
2022-08-05T23:55:31.038Z,100267.09
2022-08-05T23:58:31.971Z,100289.09
